DAL2859 KMIA-KATL
Flight info
| Callsign | DAL2859 |
|---|---|
| Flight time | 1h 25m |
| Altitude | 40000 |
| Route | FLMGO2 STYMY Q77 MJAMS/N0461F410 Q77 SHRKS/N0464F400 LAIRI LARZZ JJEDI3 |
| Aircraft | A339/H-SADE1E2E3GHIJ3J5M1P2RWXY/LB2D1 |
Departure
| Time | 2026-05-05 00:58 |
|---|---|
| Airport | Miami International Airport (KMIA) |
Arrival
| Time | 2026-05-05 02:23 |
|---|---|
| Airport | Hartsfield Jackson Atlanta International Airport (KATL) |
| Time | Latitude | Longitude | Altitude | Speed | Heading |
|---|---|---|---|---|---|
| 2026-05-05 00:37 | 25.79021 | -80.27341 | 22 ft | 0 kts | 1° |
| 2026-05-05 00:47 | 25.79014 | -80.27342 | 22 ft | 2 kts | 358° |
| 2026-05-05 00:47 | 25.78997 | -80.27340 | 26 ft | 2 kts | 355° |
| 2026-05-05 00:48 | 25.78980 | -80.27338 | 27 ft | 2 kts | 343° |
| 2026-05-05 00:48 | 25.78964 | -80.27334 | 26 ft | 2 kts | 333° |
| 2026-05-05 00:48 | 25.78949 | -80.27326 | 26 ft | 2 kts | 323° |
| 2026-05-05 00:48 | 25.78937 | -80.27314 | 26 ft | 2 kts | 310° |
| 2026-05-05 00:49 | 25.78927 | -80.27300 | 26 ft | 2 kts | 290° |
| 2026-05-05 00:49 | 25.78922 | -80.27288 | 26 ft | 0 kts | 278° |
| 2026-05-05 00:51 | 25.78923 | -80.27289 | 26 ft | 1 kts | 278° |
| 2026-05-05 00:51 | 25.78925 | -80.27305 | 26 ft | 4 kts | 278° |
| 2026-05-05 00:52 | 25.78926 | -80.27359 | 23 ft | 10 kts | 271° |
| 2026-05-05 00:52 | 25.78919 | -80.27455 | 25 ft | 15 kts | 261° |
| 2026-05-05 00:52 | 25.78896 | -80.27588 | 29 ft | 21 kts | 257° |
| 2026-05-05 00:52 | 25.78878 | -80.27774 | 24 ft | 27 kts | 268° |
| 2026-05-05 00:53 | 25.78892 | -80.27975 | 28 ft | 26 kts | 291° |
| 2026-05-05 00:53 | 25.78988 | -80.28147 | 27 ft | 26 kts | 300° |
| 2026-05-05 00:53 | 25.79076 | -80.28334 | 26 ft | 29 kts | 298° |
| 2026-05-05 00:53 | 25.79195 | -80.28545 | 22 ft | 34 kts | 301° |
| 2026-05-05 00:54 | 25.79314 | -80.28778 | 21 ft | 35 kts | 299° |
| 2026-05-05 00:54 | 25.79432 | -80.29009 | 25 ft | 34 kts | 300° |
| 2026-05-05 00:54 | 25.79548 | -80.29230 | 28 ft | 29 kts | 295° |
| 2026-05-05 00:54 | 25.79643 | -80.29422 | 27 ft | 28 kts | 300° |
| 2026-05-05 00:55 | 25.79743 | -80.29614 | 24 ft | 29 kts | 300° |
| 2026-05-05 00:55 | 25.79846 | -80.29813 | 19 ft | 24 kts | 300° |
| 2026-05-05 00:55 | 25.79900 | -80.29920 | 20 ft | 11 kts | 298° |
| 2026-05-05 00:55 | 25.79918 | -80.29956 | 19 ft | 0 kts | 298° |
| 2026-05-05 00:56 | 25.79936 | -80.29993 | 19 ft | 11 kts | 298° |
| 2026-05-05 00:56 | 25.79992 | -80.30100 | 21 ft | 18 kts | 311° |
| 2026-05-05 00:57 | 25.80060 | -80.30089 | 22 ft | 9 kts | 53° |
| 2026-05-05 00:57 | 25.80075 | -80.30014 | 19 ft | 11 kts | 87° |
| 2026-05-05 00:57 | 25.80083 | -80.29824 | 20 ft | 59 kts | 87° |
| 2026-05-05 00:57 | 25.80117 | -80.29019 | 28 ft | 144 kts | 87° |
| 2026-05-05 00:58 | 25.80171 | -80.27705 | 241 ft | 188 kts | 86° |
| 2026-05-05 00:58 | 25.80224 | -80.26246 | 1164 ft | 186 kts | 86° |
| 2026-05-05 00:58 | 25.80289 | -80.24827 | 2254 ft | 182 kts | 86° |
| 2026-05-05 00:58 | 25.80378 | -80.23352 | 2808 ft | 204 kts | 86° |
| 2026-05-05 00:59 | 25.80461 | -80.21722 | 3424 ft | 218 kts | 87° |
| 2026-05-05 00:59 | 25.80547 | -80.20005 | 3931 ft | 234 kts | 86° |
| 2026-05-05 00:59 | 25.80838 | -80.18157 | 4266 ft | 255 kts | 68° |
| 2026-05-05 00:59 | 25.81916 | -80.16522 | 4623 ft | 273 kts | 39° |
| 2026-05-05 01:00 | 25.83599 | -80.15594 | 5320 ft | 276 kts | 13° |
| 2026-05-05 01:00 | 25.85534 | -80.15444 | 5986 ft | 281 kts | 358° |
| 2026-05-05 01:00 | 25.87489 | -80.15526 | 6774 ft | 281 kts | 355° |
| 2026-05-05 01:00 | 25.89419 | -80.15741 | 7431 ft | 284 kts | 347° |
| 2026-05-05 01:01 | 25.91336 | -80.16298 | 8151 ft | 284 kts | 338° |
| 2026-05-05 01:01 | 25.93214 | -80.17029 | 8854 ft | 288 kts | 338° |
| 2026-05-05 01:01 | 25.95121 | -80.17726 | 9563 ft | 291 kts | 339° |
| 2026-05-05 01:01 | 25.97069 | -80.18414 | 9953 ft | 294 kts | 338° |
| 2026-05-05 01:02 | 25.98967 | -80.19341 | 10256 ft | 305 kts | 326° |
| 2026-05-05 01:02 | 26.00711 | -80.20777 | 10436 ft | 321 kts | 314° |
| 2026-05-05 01:02 | 26.02395 | -80.22507 | 10743 ft | 334 kts | 314° |
| 2026-05-05 01:02 | 26.04103 | -80.24237 | 11396 ft | 336 kts | 314° |
| 2026-05-05 01:03 | 26.05847 | -80.25983 | 12025 ft | 338 kts | 315° |
| 2026-05-05 01:03 | 26.07608 | -80.27735 | 12657 ft | 341 kts | 315° |
| 2026-05-05 01:03 | 26.09383 | -80.29496 | 13291 ft | 343 kts | 315° |
| 2026-05-05 01:03 | 26.11172 | -80.31271 | 13906 ft | 345 kts | 315° |
| 2026-05-05 01:04 | 26.12970 | -80.33055 | 14448 ft | 347 kts | 314° |
| 2026-05-05 01:04 | 26.16584 | -80.36644 | 15598 ft | 349 kts | 314° |
| 2026-05-05 01:04 | 26.18398 | -80.38448 | 16156 ft | 350 kts | 314° |
| 2026-05-05 01:05 | 26.20217 | -80.40257 | 16723 ft | 352 kts | 314° |
| 2026-05-05 01:05 | 26.22104 | -80.42036 | 17236 ft | 357 kts | 318° |
| 2026-05-05 01:05 | 26.24195 | -80.43554 | 17787 ft | 362 kts | 325° |
| 2026-05-05 01:05 | 26.26480 | -80.44806 | 18293 ft | 368 kts | 329° |
| 2026-05-05 01:06 | 26.28802 | -80.46010 | 18767 ft | 369 kts | 329° |
| 2026-05-05 01:06 | 26.31110 | -80.47226 | 19221 ft | 371 kts | 329° |
| 2026-05-05 01:06 | 26.33458 | -80.48471 | 19690 ft | 374 kts | 329° |
| 2026-05-05 01:06 | 26.35807 | -80.49721 | 20155 ft | 376 kts | 329° |
| 2026-05-05 01:07 | 26.38185 | -80.50987 | 20639 ft | 378 kts | 329° |
| 2026-05-05 01:07 | 26.40564 | -80.52255 | 21130 ft | 381 kts | 329° |
| 2026-05-05 01:07 | 26.42962 | -80.53532 | 21608 ft | 383 kts | 329° |
| 2026-05-05 01:07 | 26.45379 | -80.54819 | 22108 ft | 386 kts | 329° |
| 2026-05-05 01:08 | 26.47813 | -80.56092 | 22571 ft | 390 kts | 331° |
| 2026-05-05 01:08 | 26.50398 | -80.57110 | 23090 ft | 398 kts | 338° |
| 2026-05-05 01:08 | 26.53079 | -80.57936 | 23576 ft | 401 kts | 338° |
| 2026-05-05 01:08 | 26.55771 | -80.58778 | 24017 ft | 403 kts | 338° |
| 2026-05-05 01:09 | 26.58479 | -80.59634 | 24490 ft | 404 kts | 338° |
| 2026-05-05 01:09 | 26.61187 | -80.60495 | 24921 ft | 406 kts | 338° |
| 2026-05-05 01:09 | 26.63867 | -80.61347 | 25390 ft | 408 kts | 338° |
| 2026-05-05 01:09 | 26.66602 | -80.62218 | 25837 ft | 410 kts | 338° |
| 2026-05-05 01:10 | 26.69346 | -80.63091 | 26291 ft | 412 kts | 338° |
| 2026-05-05 01:10 | 26.72117 | -80.63973 | 26758 ft | 414 kts | 338° |
| 2026-05-05 01:10 | 26.74888 | -80.64856 | 27199 ft | 416 kts | 338° |
| 2026-05-05 01:10 | 26.77685 | -80.65747 | 27663 ft | 418 kts | 338° |
| 2026-05-05 01:11 | 26.80488 | -80.66640 | 28074 ft | 420 kts | 338° |
| 2026-05-05 01:11 | 26.83213 | -80.67509 | 28492 ft | 422 kts | 338° |
| 2026-05-05 01:11 | 26.86048 | -80.68414 | 28900 ft | 424 kts | 337° |
| 2026-05-05 01:11 | 26.88903 | -80.69325 | 29339 ft | 426 kts | 337° |
| 2026-05-05 01:12 | 26.91762 | -80.70239 | 29735 ft | 428 kts | 337° |
| 2026-05-05 01:12 | 26.94601 | -80.71238 | 30128 ft | 428 kts | 335° |
| 2026-05-05 01:12 | 26.97388 | -80.72313 | 30476 ft | 430 kts | 334° |
| 2026-05-05 01:12 | 27.00215 | -80.73420 | 30858 ft | 431 kts | 334° |
| 2026-05-05 01:13 | 27.03059 | -80.74524 | 31230 ft | 433 kts | 335° |
| 2026-05-05 01:13 | 27.05915 | -80.75620 | 31573 ft | 436 kts | 335° |
| 2026-05-05 01:13 | 27.07832 | -80.76351 | 31808 ft | 437 kts | 335° |
| 2026-05-05 01:13 | 27.10713 | -80.77444 | 32172 ft | 439 kts | 335° |
| 2026-05-05 01:14 | 27.13615 | -80.78545 | 32510 ft | 441 kts | 335° |
| 2026-05-05 01:14 | 27.16464 | -80.79625 | 32783 ft | 443 kts | 335° |
| 2026-05-05 01:14 | 27.19398 | -80.80738 | 33045 ft | 444 kts | 335° |
| 2026-05-05 01:14 | 27.22327 | -80.81849 | 33284 ft | 446 kts | 335° |
| 2026-05-05 01:15 | 27.25270 | -80.82967 | 33502 ft | 447 kts | 335° |
| 2026-05-05 01:15 | 27.28215 | -80.84087 | 33732 ft | 447 kts | 335° |
| 2026-05-05 01:15 | 27.31166 | -80.85208 | 34007 ft | 446 kts | 335° |
| 2026-05-05 01:15 | 27.34093 | -80.86334 | 34247 ft | 444 kts | 335° |
| 2026-05-05 01:16 | 27.36986 | -80.87514 | 34488 ft | 442 kts | 334° |
| 2026-05-05 01:16 | 27.39871 | -80.88718 | 34729 ft | 441 kts | 334° |
| 2026-05-05 01:16 | 27.42739 | -80.89915 | 34967 ft | 440 kts | 333° |
| 2026-05-05 01:16 | 27.45601 | -80.91104 | 35203 ft | 439 kts | 333° |
| 2026-05-05 01:17 | 27.48465 | -80.92288 | 35422 ft | 438 kts | 333° |
| 2026-05-05 01:17 | 27.51330 | -80.93469 | 35651 ft | 437 kts | 333° |
| 2026-05-05 01:17 | 27.54149 | -80.94632 | 35873 ft | 436 kts | 333° |
| 2026-05-05 01:17 | 27.57001 | -80.95807 | 36092 ft | 436 kts | 333° |
| 2026-05-05 01:18 | 27.59841 | -80.96978 | 36310 ft | 435 kts | 333° |
| 2026-05-05 01:18 | 27.62685 | -80.98152 | 36523 ft | 434 kts | 333° |
| 2026-05-05 01:18 | 27.65524 | -80.99325 | 36734 ft | 434 kts | 333° |
| 2026-05-05 01:18 | 27.68360 | -81.00497 | 36948 ft | 433 kts | 333° |
| 2026-05-05 01:19 | 27.71190 | -81.01667 | 37164 ft | 433 kts | 333° |
| 2026-05-05 01:19 | 27.74015 | -81.02836 | 37356 ft | 432 kts | 332° |
| 2026-05-05 01:19 | 27.76840 | -81.04005 | 37552 ft | 432 kts | 332° |
| 2026-05-05 01:19 | 27.79664 | -81.05175 | 37759 ft | 431 kts | 332° |
| 2026-05-05 01:20 | 27.82479 | -81.06341 | 37947 ft | 431 kts | 332° |
| 2026-05-05 01:20 | 27.85300 | -81.07511 | 38126 ft | 431 kts | 332° |
| 2026-05-05 01:20 | 27.88115 | -81.08679 | 38297 ft | 431 kts | 332° |
| 2026-05-05 01:20 | 27.90937 | -81.09850 | 38476 ft | 431 kts | 332° |
| 2026-05-05 01:21 | 27.93718 | -81.11006 | 38657 ft | 431 kts | 332° |
| 2026-05-05 01:21 | 27.96536 | -81.12177 | 38809 ft | 431 kts | 332° |
| 2026-05-05 01:21 | 27.99385 | -81.13361 | 38972 ft | 431 kts | 332° |
| 2026-05-05 01:21 | 28.02197 | -81.14530 | 39123 ft | 430 kts | 332° |
| 2026-05-05 01:22 | 28.04931 | -81.15774 | 39287 ft | 426 kts | 328° |
| 2026-05-05 01:22 | 28.06922 | -81.16813 | 39386 ft | 425 kts | 328° |
| 2026-05-05 01:22 | 28.09615 | -81.18209 | 39513 ft | 425 kts | 328° |
| 2026-05-05 01:22 | 28.12290 | -81.19584 | 39676 ft | 425 kts | 328° |
| 2026-05-05 01:23 | 28.14959 | -81.20954 | 39829 ft | 425 kts | 328° |
| 2026-05-05 01:23 | 28.17646 | -81.22335 | 39978 ft | 424 kts | 328° |
| 2026-05-05 01:23 | 28.20331 | -81.23718 | 40119 ft | 424 kts | 328° |
| 2026-05-05 01:23 | 28.23015 | -81.25101 | 40268 ft | 423 kts | 328° |
| 2026-05-05 01:24 | 28.25667 | -81.26469 | 40419 ft | 423 kts | 328° |
| 2026-05-05 01:24 | 28.27444 | -81.27387 | 40515 ft | 422 kts | 328° |
| 2026-05-05 01:24 | 28.30123 | -81.28771 | 40643 ft | 422 kts | 328° |
| 2026-05-05 01:24 | 28.32798 | -81.30153 | 40790 ft | 422 kts | 328° |
| 2026-05-05 01:25 | 28.35457 | -81.31527 | 40928 ft | 421 kts | 328° |
| 2026-05-05 01:25 | 28.38143 | -81.32902 | 41053 ft | 421 kts | 328° |
| 2026-05-05 01:25 | 28.43484 | -81.35624 | 41081 ft | 420 kts | 328° |
| 2026-05-05 01:26 | 28.48811 | -81.38346 | 41084 ft | 420 kts | 328° |
| 2026-05-05 01:26 | 28.54124 | -81.41067 | 41081 ft | 420 kts | 328° |
| 2026-05-05 01:27 | 28.59452 | -81.43798 | 41085 ft | 420 kts | 328° |
| 2026-05-05 01:27 | 28.64784 | -81.46535 | 41084 ft | 420 kts | 328° |
| 2026-05-05 01:28 | 28.70113 | -81.49272 | 41077 ft | 420 kts | 328° |
| 2026-05-05 01:28 | 28.75456 | -81.52021 | 41070 ft | 420 kts | 328° |
| 2026-05-05 01:29 | 28.80786 | -81.54766 | 41082 ft | 420 kts | 328° |
| 2026-05-05 01:29 | 28.86113 | -81.57512 | 41065 ft | 420 kts | 328° |
| 2026-05-05 01:30 | 28.91550 | -81.59813 | 41063 ft | 429 kts | 336° |
| 2026-05-05 01:30 | 28.97460 | -81.61248 | 41067 ft | 438 kts | 343° |
| 2026-05-05 01:31 | 29.03569 | -81.61895 | 41063 ft | 443 kts | 346° |
| 2026-05-05 01:31 | 29.09715 | -81.62462 | 41071 ft | 443 kts | 346° |
| 2026-05-05 01:32 | 29.15832 | -81.63031 | 41070 ft | 444 kts | 346° |
| 2026-05-05 01:32 | 29.22011 | -81.63599 | 41065 ft | 444 kts | 346° |
| 2026-05-05 01:33 | 29.28178 | -81.64165 | 41068 ft | 445 kts | 346° |
| 2026-05-05 01:33 | 29.34357 | -81.64732 | 41071 ft | 445 kts | 346° |
| 2026-05-05 01:34 | 29.40541 | -81.65301 | 41074 ft | 446 kts | 346° |
| 2026-05-05 01:34 | 29.46686 | -81.65866 | 41077 ft | 446 kts | 347° |
| 2026-05-05 01:35 | 29.52903 | -81.66439 | 41081 ft | 447 kts | 347° |
| 2026-05-05 01:35 | 29.59107 | -81.67011 | 41085 ft | 447 kts | 347° |
| 2026-05-05 01:36 | 29.65274 | -81.67581 | 41087 ft | 447 kts | 347° |
| 2026-05-05 01:36 | 29.71484 | -81.68155 | 41086 ft | 447 kts | 347° |
| 2026-05-05 01:37 | 29.77703 | -81.68731 | 41090 ft | 447 kts | 347° |
| 2026-05-05 01:37 | 29.83905 | -81.69306 | 41092 ft | 447 kts | 347° |
| 2026-05-05 01:38 | 29.90116 | -81.69882 | 41096 ft | 447 kts | 347° |
| 2026-05-05 01:38 | 29.95999 | -81.70429 | 41092 ft | 447 kts | 347° |
| 2026-05-05 01:39 | 30.02165 | -81.71004 | 41098 ft | 447 kts | 347° |
| 2026-05-05 01:39 | 30.08361 | -81.71582 | 41103 ft | 447 kts | 347° |
| 2026-05-05 01:40 | 30.14568 | -81.72161 | 41107 ft | 447 kts | 347° |
| 2026-05-05 01:40 | 30.20764 | -81.72740 | 41100 ft | 446 kts | 347° |
| 2026-05-05 01:41 | 30.26950 | -81.73318 | 41106 ft | 446 kts | 347° |
| 2026-05-05 01:41 | 30.33133 | -81.73898 | 41127 ft | 445 kts | 347° |
| 2026-05-05 01:42 | 30.39312 | -81.74478 | 41100 ft | 445 kts | 347° |
| 2026-05-05 01:42 | 30.45488 | -81.75057 | 41097 ft | 445 kts | 347° |
| 2026-05-05 01:43 | 30.51653 | -81.75637 | 41095 ft | 444 kts | 347° |
| 2026-05-05 01:43 | 30.57780 | -81.76364 | 41093 ft | 438 kts | 342° |
| 2026-05-05 01:44 | 30.63599 | -81.78007 | 41090 ft | 429 kts | 334° |
| 2026-05-05 01:44 | 30.69081 | -81.80560 | 41087 ft | 421 kts | 327° |
| 2026-05-05 01:45 | 30.74299 | -81.83592 | 41091 ft | 420 kts | 327° |
| 2026-05-05 01:45 | 30.79542 | -81.86611 | 41087 ft | 419 kts | 327° |
| 2026-05-05 01:46 | 30.84766 | -81.89632 | 41071 ft | 419 kts | 327° |
| 2026-05-05 01:46 | 30.89988 | -81.92661 | 41070 ft | 419 kts | 327° |
| 2026-05-05 01:47 | 30.95170 | -81.95672 | 41063 ft | 418 kts | 327° |
| 2026-05-05 01:47 | 31.00381 | -81.98703 | 41075 ft | 418 kts | 327° |
| 2026-05-05 01:48 | 31.05574 | -82.01727 | 40987 ft | 415 kts | 327° |
| 2026-05-05 01:48 | 31.08151 | -82.03228 | 40598 ft | 413 kts | 327° |
| 2026-05-05 01:48 | 31.10724 | -82.04729 | 40057 ft | 412 kts | 327° |
| 2026-05-05 01:49 | 31.13291 | -82.06228 | 39477 ft | 412 kts | 327° |
| 2026-05-05 01:49 | 31.15857 | -82.07727 | 38850 ft | 412 kts | 327° |
| 2026-05-05 01:49 | 31.18421 | -82.09226 | 38094 ft | 412 kts | 327° |
| 2026-05-05 01:49 | 31.20984 | -82.10726 | 37337 ft | 413 kts | 327° |
| 2026-05-05 01:50 | 31.23564 | -82.12235 | 36555 ft | 414 kts | 327° |
| 2026-05-05 01:50 | 31.26143 | -82.13746 | 35767 ft | 415 kts | 327° |
| 2026-05-05 01:50 | 31.28688 | -82.15236 | 35290 ft | 414 kts | 327° |
| 2026-05-05 01:50 | 31.31274 | -82.16752 | 35141 ft | 418 kts | 327° |
| 2026-05-05 01:51 | 31.36532 | -82.19842 | 35074 ft | 423 kts | 327° |
| 2026-05-05 01:51 | 31.41796 | -82.22930 | 35074 ft | 423 kts | 327° |
| 2026-05-05 01:52 | 31.47056 | -82.26022 | 35068 ft | 423 kts | 327° |
| 2026-05-05 01:52 | 31.52319 | -82.29121 | 35066 ft | 423 kts | 327° |
| 2026-05-05 01:53 | 31.57576 | -82.32220 | 35067 ft | 423 kts | 327° |
| 2026-05-05 01:53 | 31.62828 | -82.35320 | 35068 ft | 423 kts | 327° |
| 2026-05-05 01:54 | 31.68084 | -82.38428 | 35068 ft | 422 kts | 327° |
| 2026-05-05 01:54 | 31.73331 | -82.41533 | 35064 ft | 422 kts | 327° |
| 2026-05-05 01:55 | 31.78557 | -82.44630 | 35067 ft | 423 kts | 327° |
| 2026-05-05 01:55 | 31.83822 | -82.47755 | 35065 ft | 423 kts | 327° |
| 2026-05-05 01:56 | 31.89087 | -82.50883 | 35077 ft | 424 kts | 327° |
| 2026-05-05 01:56 | 31.94322 | -82.54069 | 35073 ft | 422 kts | 324° |
| 2026-05-05 01:57 | 31.98326 | -82.57268 | 35073 ft | 417 kts | 317° |
| 2026-05-05 01:57 | 32.03418 | -82.62429 | 35068 ft | 415 kts | 315° |
| 2026-05-05 01:58 | 32.07801 | -82.66883 | 35066 ft | 415 kts | 315° |
| 2026-05-05 01:58 | 32.12137 | -82.71302 | 35065 ft | 416 kts | 315° |
| 2026-05-05 01:59 | 32.15775 | -82.75020 | 35067 ft | 416 kts | 315° |
| 2026-05-05 01:59 | 32.20142 | -82.79491 | 35066 ft | 416 kts | 315° |
| 2026-05-05 02:00 | 32.24520 | -82.83979 | 35069 ft | 416 kts | 315° |
| 2026-05-05 02:00 | 32.28886 | -82.88460 | 35065 ft | 416 kts | 315° |
| 2026-05-05 02:01 | 32.33250 | -82.92945 | 35062 ft | 416 kts | 315° |
| 2026-05-05 02:01 | 32.37610 | -82.97431 | 35061 ft | 416 kts | 315° |
| 2026-05-05 02:02 | 32.41979 | -83.01927 | 34813 ft | 417 kts | 315° |
| 2026-05-05 02:02 | 32.44146 | -83.04155 | 34576 ft | 417 kts | 315° |
| 2026-05-05 02:02 | 32.46342 | -83.06416 | 33938 ft | 420 kts | 315° |
| 2026-05-05 02:03 | 32.48563 | -83.08708 | 32518 ft | 429 kts | 315° |
| 2026-05-05 02:03 | 32.50851 | -83.11075 | 30786 ft | 446 kts | 315° |
| 2026-05-05 02:03 | 32.53211 | -83.13512 | 29371 ft | 450 kts | 315° |
| 2026-05-05 02:03 | 32.55571 | -83.15947 | 28214 ft | 449 kts | 316° |
| 2026-05-05 02:04 | 32.57891 | -83.18340 | 27401 ft | 444 kts | 316° |
| 2026-05-05 02:04 | 32.60202 | -83.20725 | 26860 ft | 434 kts | 316° |
| 2026-05-05 02:04 | 32.62438 | -83.23038 | 26591 ft | 419 kts | 315° |
| 2026-05-05 02:04 | 32.64607 | -83.25286 | 26332 ft | 410 kts | 315° |
| 2026-05-05 02:05 | 32.66763 | -83.27530 | 26016 ft | 414 kts | 315° |
| 2026-05-05 02:05 | 32.68949 | -83.29808 | 25323 ft | 419 kts | 315° |
| 2026-05-05 02:05 | 32.71149 | -83.32101 | 24600 ft | 421 kts | 316° |
| 2026-05-05 02:05 | 32.73343 | -83.34385 | 23874 ft | 419 kts | 316° |
| 2026-05-05 02:06 | 32.75533 | -83.36665 | 23046 ft | 417 kts | 316° |
| 2026-05-05 02:06 | 32.77666 | -83.38884 | 22430 ft | 408 kts | 316° |
| 2026-05-05 02:06 | 32.79784 | -83.41090 | 21751 ft | 402 kts | 316° |
| 2026-05-05 02:06 | 32.81875 | -83.43271 | 21065 ft | 396 kts | 316° |
| 2026-05-05 02:07 | 32.83930 | -83.45416 | 20397 ft | 391 kts | 316° |
| 2026-05-05 02:07 | 32.85961 | -83.47539 | 19717 ft | 386 kts | 316° |
| 2026-05-05 02:07 | 32.87969 | -83.49638 | 19052 ft | 382 kts | 316° |
| 2026-05-05 02:07 | 32.89963 | -83.51725 | 18372 ft | 379 kts | 316° |
| 2026-05-05 02:08 | 32.91919 | -83.53774 | 17679 ft | 373 kts | 316° |
| 2026-05-05 02:08 | 32.93845 | -83.55792 | 17206 ft | 362 kts | 316° |
| 2026-05-05 02:08 | 32.95723 | -83.57759 | 16628 ft | 356 kts | 316° |
| 2026-05-05 02:08 | 32.97558 | -83.59681 | 16316 ft | 347 kts | 316° |
| 2026-05-05 02:09 | 32.99387 | -83.61599 | 15963 ft | 353 kts | 316° |
| 2026-05-05 02:09 | 33.01199 | -83.63502 | 15397 ft | 356 kts | 316° |
| 2026-05-05 02:09 | 33.03051 | -83.65445 | 14844 ft | 353 kts | 316° |
| 2026-05-05 02:09 | 33.04883 | -83.67366 | 14250 ft | 348 kts | 317° |
| 2026-05-05 02:10 | 33.06684 | -83.69257 | 13706 ft | 342 kts | 317° |
| 2026-05-05 02:10 | 33.08458 | -83.71117 | 13165 ft | 336 kts | 317° |
| 2026-05-05 02:10 | 33.10194 | -83.72940 | 12628 ft | 329 kts | 317° |
| 2026-05-05 02:10 | 33.11875 | -83.74705 | 12432 ft | 313 kts | 317° |
| 2026-05-05 02:11 | 33.13462 | -83.76373 | 11989 ft | 305 kts | 316° |
| 2026-05-05 02:11 | 33.15049 | -83.78043 | 11646 ft | 295 kts | 316° |
| 2026-05-05 02:11 | 33.16571 | -83.79652 | 11404 ft | 298 kts | 316° |
| 2026-05-05 02:11 | 33.18122 | -83.81294 | 11154 ft | 297 kts | 316° |
| 2026-05-05 02:12 | 33.19635 | -83.82948 | 10836 ft | 294 kts | 313° |
| 2026-05-05 02:12 | 33.22469 | -83.86340 | 10044 ft | 282 kts | 313° |
| 2026-05-05 02:12 | 33.23713 | -83.87827 | 9655 ft | 275 kts | 313° |
| 2026-05-05 02:13 | 33.25045 | -83.89415 | 9272 ft | 266 kts | 313° |
| 2026-05-05 02:13 | 33.26336 | -83.90955 | 8898 ft | 265 kts | 313° |
| 2026-05-05 02:13 | 33.27735 | -83.92633 | 8466 ft | 300 kts | 313° |
| 2026-05-05 02:13 | 33.29225 | -83.94415 | 8364 ft | 301 kts | 313° |
| 2026-05-05 02:14 | 33.30687 | -83.96156 | 8248 ft | 291 kts | 313° |
| 2026-05-05 02:14 | 33.32107 | -83.97849 | 7767 ft | 287 kts | 313° |
| 2026-05-05 02:14 | 33.33509 | -83.99525 | 7313 ft | 280 kts | 313° |
| 2026-05-05 02:14 | 33.34931 | -84.01075 | 7152 ft | 282 kts | 322° |
| 2026-05-05 02:15 | 33.36601 | -84.02339 | 7040 ft | 284 kts | 328° |
| 2026-05-05 02:15 | 33.38330 | -84.03491 | 6930 ft | 284 kts | 329° |
| 2026-05-05 02:15 | 33.40055 | -84.04639 | 6805 ft | 283 kts | 328° |
| 2026-05-05 02:15 | 33.41762 | -84.05816 | 6683 ft | 283 kts | 327° |
| 2026-05-05 02:16 | 33.43454 | -84.07018 | 6568 ft | 282 kts | 327° |
| 2026-05-05 02:16 | 33.45131 | -84.08231 | 6446 ft | 282 kts | 327° |
| 2026-05-05 02:16 | 33.46808 | -84.09454 | 6323 ft | 282 kts | 326° |
| 2026-05-05 02:16 | 33.48478 | -84.10678 | 6161 ft | 281 kts | 326° |
| 2026-05-05 02:17 | 33.50143 | -84.11896 | 5818 ft | 279 kts | 326° |
| 2026-05-05 02:17 | 33.51782 | -84.13090 | 5439 ft | 270 kts | 326° |
| 2026-05-05 02:17 | 33.53353 | -84.14234 | 5092 ft | 260 kts | 326° |
| 2026-05-05 02:17 | 33.54875 | -84.15344 | 4744 ft | 257 kts | 326° |
| 2026-05-05 02:18 | 33.56507 | -84.16543 | 4368 ft | 286 kts | 326° |
| 2026-05-05 02:18 | 33.58099 | -84.17829 | 4125 ft | 274 kts | 315° |
| 2026-05-05 02:18 | 33.59200 | -84.19653 | 3989 ft | 265 kts | 294° |
| 2026-05-05 02:18 | 33.60009 | -84.21515 | 3806 ft | 237 kts | 294° |
| 2026-05-05 02:19 | 33.60743 | -84.23163 | 3598 ft | 213 kts | 294° |
| 2026-05-05 02:19 | 33.61423 | -84.24665 | 3410 ft | 195 kts | 294° |
| 2026-05-05 02:19 | 33.62018 | -84.26016 | 3261 ft | 169 kts | 289° |
| 2026-05-05 02:19 | 33.62412 | -84.27240 | 3108 ft | 147 kts | 283° |
| 2026-05-05 02:20 | 33.62708 | -84.28397 | 2821 ft | 144 kts | 281° |
| 2026-05-05 02:20 | 33.62990 | -84.29523 | 2519 ft | 138 kts | 279° |
| 2026-05-05 02:20 | 33.63185 | -84.30672 | 2306 ft | 139 kts | 272° |
| 2026-05-05 02:20 | 33.63293 | -84.31815 | 2146 ft | 140 kts | 270° |
| 2026-05-05 02:21 | 33.63346 | -84.32946 | 2002 ft | 137 kts | 264° |
| 2026-05-05 02:21 | 33.63322 | -84.34086 | 1896 ft | 134 kts | 262° |
| 2026-05-05 02:21 | 33.63303 | -84.35222 | 1937 ft | 138 kts | 264° |
| 2026-05-05 02:21 | 33.63279 | -84.36379 | 1864 ft | 137 kts | 262° |
| 2026-05-05 02:22 | 33.63187 | -84.37513 | 1505 ft | 137 kts | 265° |
| 2026-05-05 02:22 | 33.63228 | -84.38652 | 1426 ft | 139 kts | 268° |
| 2026-05-05 02:22 | 33.63201 | -84.39823 | 1376 ft | 138 kts | 266° |
| 2026-05-05 02:22 | 33.63184 | -84.40959 | 1151 ft | 134 kts | 268° |
| 2026-05-05 02:23 | 33.63177 | -84.42118 | 1022 ft | 141 kts | 268° |
| 2026-05-05 02:23 | 33.63178 | -84.43154 | 1023 ft | 100 kts | 270° |
| 2026-05-05 02:23 | 33.63181 | -84.43676 | 1027 ft | 49 kts | 272° |
| 2026-05-05 02:23 | 33.63224 | -84.44143 | 1027 ft | 56 kts | 294° |
| 2026-05-05 02:24 | 33.63281 | -84.44261 | 1026 ft | 4 kts | 307° |
| 2026-05-05 02:24 | 33.63307 | -84.44280 | 1027 ft | 0 kts | 335° |
| 2026-05-05 02:25 | 33.63320 | -84.44293 | 1028 ft | 8 kts | 322° |
| 2026-05-05 02:25 | 33.63359 | -84.44404 | 1029 ft | 20 kts | 277° |
| 2026-05-05 02:25 | 33.63361 | -84.44604 | 1033 ft | 26 kts | 270° |
| 2026-05-05 02:25 | 33.63384 | -84.44768 | 1032 ft | 16 kts | 316° |
| 2026-05-05 02:26 | 33.63504 | -84.44782 | 1032 ft | 22 kts | 358° |
| 2026-05-05 02:26 | 33.63660 | -84.44719 | 1030 ft | 24 kts | 53° |
| 2026-05-05 02:26 | 33.63664 | -84.44545 | 1032 ft | 23 kts | 94° |
| 2026-05-05 02:26 | 33.63663 | -84.44327 | 1028 ft | 29 kts | 90° |
| 2026-05-05 02:27 | 33.63663 | -84.44072 | 1028 ft | 33 kts | 90° |
| 2026-05-05 02:27 | 33.63663 | -84.43784 | 1021 ft | 36 kts | 90° |
| 2026-05-05 02:27 | 33.63663 | -84.43538 | 1020 ft | 17 kts | 88° |
| 2026-05-05 02:27 | 33.63766 | -84.43459 | 1018 ft | 24 kts | 1° |
| 2026-05-05 02:28 | 33.63825 | -84.43461 | 1019 ft | 3 kts | 346° |
| 2026-05-05 02:28 | 33.63831 | -84.43488 | 1019 ft | 4 kts | 285° |
| 2026-05-05 02:28 | 33.63833 | -84.43526 | 1020 ft | 2 kts | 272° |
| 2026-05-05 02:28 | 33.63834 | -84.43531 | 1020 ft | 0 kts | 272° |